Time;durP1;ratioP1;P1;durP2;ratioP2;P2;SDS_P1;SDS_P2;PMS_P1;PMS_P2;Temp;Humidity;BMP_temperature;BMP_pressure;BME280_temperature;BME280_humidity;BME280_pressure;Samples;Min_cycle;Max_cycle;Signal;HPM_P1;HPM_P2
2022/04/25 00:01:30;;;;;;;;;;;;;;;28.35;26.54;100170.44;5096910;28;1294;-36
2022/04/25 00:03:55;;;;;;;;;;;;;;;28.36;26.34;100168.59;5097442;28;1234;-34
2022/04/25 00:06:21;;;;;;;;;;;;;;;28.31;26.55;100163.75;5091873;28;1234;-37
2022/04/25 00:08:46;;;;;;;;;;;;;;;28.35;26.54;100165.03;5080035;28;897;-36
2022/04/25 00:11:11;;;;;;;;;;;;;;;28.45;26.20;100171.91;5086238;28;1080;-37
2022/04/25 00:13:37;;;;;;;;;;;;;;;28.38;26.55;100171.91;5097615;28;1909;-35
2022/04/25 00:16:02;;;;;;;;;;;;;;;28.28;26.60;100168.75;5097000;28;809;-38
2022/04/25 00:18:28;;;;;;;;;;;;;;;28.41;26.35;100174.19;5082657;28;861;-33
2022/04/25 00:20:55;;;;;;;;;;;;;;;28.49;25.99;100170.47;5077773;28;1016;-34
2022/04/25 00:23:20;;;;;;;;;;;;;;;28.46;26.49;100173.59;5077768;28;782;-35
2022/04/25 00:25:45;;;;;;;;;;;;;;;28.35;26.43;100169.59;5087336;28;829;-37
2022/04/25 00:28:11;;;;;;;;;;;;;;;28.34;26.59;100162.53;5077460;28;877;-37
2022/04/25 00:30:36;;;;;;;;;;;;;;;28.28;26.74;100172.28;5077677;28;871;-35
2022/04/25 00:33:01;;;;;;;;;;;;;;;28.32;26.97;100164.59;5084317;28;889;-37
2022/04/25 00:35:27;;;;;;;;;;;;;;;28.96;26.06;100177.75;5077508;28;1965;-36
2022/04/25 00:37:52;;;;;;;;;;;;;;;29.46;25.64;100169.13;5089429;28;814;-34
2022/04/25 00:40:18;;;;;;;;;;;;;;;29.09;25.77;100161.50;5078639;28;812;-34
2022/04/25 00:42:43;;;;;;;;;;;;;;;28.56;26.67;100156.94;5077336;28;834;-32
2022/04/25 00:45:12;;;;;;;;;;;;;;;28.31;26.70;100154.81;5077656;28;835;-34
2022/04/25 00:47:40;;;;;;;;;;;;;;;28.27;26.89;100153.53;5086621;28;837;-36
2022/04/25 00:50:06;;;;;;;;;;;;;;;28.22;26.71;100151.47;5087081;28;790;-36
2022/04/25 00:52:32;;;;;;;;;;;;;;;28.90;26.21;100152.34;5078916;28;781;-37
2022/04/25 00:54:57;;;;;;;;;;;;;;;29.48;25.58;100147.25;5087941;28;1953;-36
2022/04/25 00:57:23;;;;;;;;;;;;;;;29.39;25.52;100154.78;5078522;28;858;-36
2022/04/25 00:59:48;;;;;;;;;;;;;;;29.24;25.69;100149.63;5095914;28;1055;-36
2022/04/25 01:02:13;;;;;;;;;;;;;;;28.58;25.84;100147.56;5095778;28;810;-34
2022/04/25 01:04:39;;;;;;;;;;;;;;;28.41;26.33;100139.03;5080459;28;801;-36
2022/04/25 01:07:04;;;;;;;;;;;;;;;28.40;26.23;100139.22;5076558;28;825;-36
2022/04/25 01:09:29;;;;;;;;;;;;;;;28.51;25.83;100144.03;5076751;28;865;-37
2022/04/25 01:11:55;;;;;;;;;;;;;;;28.35;26.07;100142.56;5076848;28;774;-36
2022/04/25 01:14:20;;;;;;;;;;;;;;;28.41;26.16;100144.44;5076650;28;1972;-35
2022/04/25 01:16:47;;;;;;;;;;;;;;;28.50;26.09;100139.66;5081293;28;833;-35
2022/04/25 01:19:13;;;;;;;;;;;;;;;28.76;26.24;100134.47;5076701;28;737;-33
2022/04/25 01:21:42;;;;;;;;;;;;;;;28.45;26.70;100139.44;5075997;28;825;-36
2022/04/25 01:29:35;;;;;;;;;;;;;;;28.30;26.77;100128.78;5076177;28;872;-36
2022/04/25 01:32:00;;;;;;;;;;;;;;;28.33;26.56;100131.09;5062864;28;892;-37
2022/04/25 01:34:26;;;;;;;;;;;;;;;28.37;26.60;100126.97;5078948;28;1898;-36
2022/04/25 01:36:51;;;;;;;;;;;;;;;28.32;26.42;100116.75;5086358;28;879;-34
2022/04/25 01:39:16;;;;;;;;;;;;;;;28.22;26.42;100119.00;5095377;28;1342;-34
2022/04/25 01:41:42;;;;;;;;;;;;;;;28.26;26.60;100111.31;5095585;28;778;-34
2022/04/25 01:44:07;;;;;;;;;;;;;;;28.29;26.38;100113.59;5093092;28;903;-37
2022/04/25 01:46:33;;;;;;;;;;;;;;;28.29;26.42;100114.44;5077232;28;909;-34
2022/04/25 01:48:58;;;;;;;;;;;;;;;28.32;26.25;100107.78;5081350;28;797;-34
2022/04/25 01:51:23;;;;;;;;;;;;;;;28.29;26.29;100094.69;5076174;28;871;-34
2022/04/25 01:53:48;;;;;;;;;;;;;;;28.20;26.57;100103.00;5083503;28;1902;-32
2022/04/25 01:56:14;;;;;;;;;;;;;;;28.27;26.57;100099.44;5076412;28;789;-36
2022/04/25 01:58:39;;;;;;;;;;;;;;;28.34;26.54;100093.03;5075975;28;900;-34
2022/04/25 02:01:07;;;;;;;;;;;;;;;28.18;26.69;100096.09;5076102;28;1184;-37
2022/04/25 02:03:34;;;;;;;;;;;;;;;28.26;26.91;100098.59;5072555;28;838;-32
2022/04/25 02:06:00;;;;;;;;;;;;;;;28.16;26.89;100095.50;5069042;28;798;-33
2022/04/25 02:08:25;;;;;;;;;;;;;;;28.19;26.98;100097.78;5075801;28;819;-33
2022/04/25 02:13:34;;;;;;;;;;;;;;;28.08;27.02;100099.22;5070194;28;647;-32
2022/04/25 02:15:59;;;;;;;;;;;;;;;28.16;27.05;100093.59;5076108;28;1973;-35
2022/04/25 02:18:25;;;;;;;;;;;;;;;28.10;26.91;100097.16;5077358;28;986;-33
2022/04/25 02:20:50;;;;;;;;;;;;;;;28.05;26.91;100088.81;5079398;28;782;-32
2022/04/25 02:23:16;;;;;;;;;;;;;;;28.05;27.05;100092.34;5079725;28;732;-33
2022/04/25 02:25:42;;;;;;;;;;;;;;;28.01;27.26;100096.50;5079257;28;830;-38
2022/04/25 02:28:07;;;;;;;;;;;;;;;28.07;26.96;100094.84;5079541;28;830;-32
2022/04/25 02:30:32;;;;;;;;;;;;;;;27.97;27.21;100101.50;5079570;28;813;-35
2022/04/25 02:32:57;;;;;;;;;;;;;;;27.97;27.03;100097.97;5078952;28;1515;-36
2022/04/25 02:35:23;;;;;;;;;;;;;;;28.00;27.11;100092.13;5079475;28;1893;-35
2022/04/25 02:37:48;;;;;;;;;;;;;;;28.05;26.96;100094.22;5079252;28;778;-36
2022/04/25 02:40:13;;;;;;;;;;;;;;;28.02;26.61;100090.06;5079412;28;766;-35
2022/04/25 02:42:39;;;;;;;;;;;;;;;28.11;26.84;100096.94;5079364;28;719;-35
2022/04/25 02:45:05;;;;;;;;;;;;;;;28.15;26.72;100091.97;5079164;28;886;-34
2022/04/25 02:47:30;;;;;;;;;;;;;;;28.09;26.74;100087.38;5079081;28;802;-34
2022/04/25 02:49:56;;;;;;;;;;;;;;;28.12;26.72;100089.66;5079158;28;826;-37
2022/04/25 02:52:21;;;;;;;;;;;;;;;28.02;26.63;100094.63;5079070;28;1254;-37
2022/04/25 02:54:46;;;;;;;;;;;;;;;28.06;26.81;100093.19;5078782;28;1905;-34
2022/04/25 02:57:11;;;;;;;;;;;;;;;28.05;27.10;100095.06;5078328;28;855;-38
2022/04/25 02:59:37;;;;;;;;;;;;;;;27.96;27.25;100093.59;5078737;28;1132;-36
2022/04/25 03:02:02;;;;;;;;;;;;;;;27.92;27.44;100097.75;5078779;28;802;-33
2022/04/25 03:04:27;;;;;;;;;;;;;;;27.98;27.21;100094.22;5078678;28;774;-33
2022/04/25 03:06:54;;;;;;;;;;;;;;;27.92;27.34;100093.16;5078936;28;813;-35
2022/04/25 03:09:20;;;;;;;;;;;;;;;27.92;27.29;100095.03;5078872;28;793;-36
2022/04/25 03:11:46;;;;;;;;;;;;;;;27.91;27.41;100093.38;5077647;28;1397;-34
2022/04/25 03:14:11;;;;;;;;;;;;;;;27.90;27.21;100092.53;5078304;28;1910;-32
2022/04/25 03:16:36;;;;;;;;;;;;;;;27.93;26.85;100092.13;5078453;28;818;-36
2022/04/25 03:19:02;;;;;;;;;;;;;;;27.86;27.07;100085.88;5078400;28;802;-31
2022/04/25 03:21:28;;;;;;;;;;;;;;;27.84;26.87;100087.97;5078600;28;1097;-36
2022/04/25 03:23:54;;;;;;;;;;;;;;;27.80;26.81;100092.09;5078188;28;846;-35
2022/04/25 03:26:19;;;;;;;;;;;;;;;27.70;27.04;100103.28;5078081;28;1464;-34
2022/04/25 03:28:45;;;;;;;;;;;;;;;27.73;27.28;100086.66;5078239;28;789;-37
2022/04/25 03:31:10;;;;;;;;;;;;;;;27.91;27.07;100093.38;5077592;28;1159;-33
2022/04/25 03:33:36;;;;;;;;;;;;;;;27.16;26.47;100089.53;5078243;28;864;-32
2022/04/25 03:36:01;;;;;;;;;;;;;;;26.43;26.75;100089.63;5077760;28;1959;-35
2022/04/25 03:38:26;;;;;;;;;;;;;;;26.34;27.07;100083.50;5073439;28;1564;-31
2022/04/25 03:40:52;;;;;;;;;;;;;;;26.17;26.70;100089.16;5078831;28;812;-33
2022/04/25 03:43:17;;;;;;;;;;;;;;;25.97;26.72;100083.59;5078189;28;762;-30
2022/04/25 03:45:43;;;;;;;;;;;;;;;25.92;26.96;100092.22;5077416;28;1183;-31
2022/04/25 03:48:08;;;;;;;;;;;;;;;25.82;27.49;100089.00;5069488;28;1425;-35
2022/04/25 03:50:34;;;;;;;;;;;;;;;25.88;28.26;100090.94;5078263;28;837;-30
2022/04/25 03:53:09;;;;;;;;;;;;;;;26.10;27.37;100088.25;5078004;28;805;-33
2022/04/25 03:58:19;;;;;;;;;;;;;;;27.02;27.21;100092.16;5077704;28;663;-36
2022/04/25 04:00:44;;;;;;;;;;;;;;;27.18;26.86;100085.59;5077462;28;1276;-36
2022/04/25 04:03:12;;;;;;;;;;;;;;;27.43;26.84;100087.78;5072485;28;827;-36
2022/04/25 04:05:37;;;;;;;;;;;;;;;27.63;26.64;100089.72;5078230;28;869;-35
2022/04/25 04:08:03;;;;;;;;;;;;;;;27.76;26.52;100078.16;5060077;28;853;-33
2022/04/25 04:10:28;;;;;;;;;;;;;;;27.75;26.84;100081.91;5077924;28;830;-34
2022/04/25 04:12:54;;;;;;;;;;;;;;;27.45;26.67;100079.47;5077578;28;828;-35
2022/04/25 04:15:19;;;;;;;;;;;;;;;27.24;27.16;100079.38;5077122;28;1976;-34
2022/04/25 04:17:44;;;;;;;;;;;;;;;27.74;26.76;100077.53;5076965;28;1195;-34
2022/04/25 04:20:11;;;;;;;;;;;;;;;28.09;26.30;100087.38;5077101;28;1258;-32
2022/04/25 04:22:36;;;;;;;;;;;;;;;28.58;25.72;100087.19;5077292;28;1250;-37
2022/04/25 04:25:03;;;;;;;;;;;;;;;28.53;25.80;100095.13;5076714;28;1163;-38
2022/04/25 04:27:31;;;;;;;;;;;;;;;28.37;25.64;100097.22;5075079;28;1233;-36
2022/04/25 04:29:57;;;;;;;;;;;;;;;28.11;26.21;100088.81;5074110;28;1296;-36
2022/04/25 04:32:22;;;;;;;;;;;;;;;27.83;26.39;100092.53;5074519;28;1217;-33
2022/04/25 04:34:48;;;;;;;;;;;;;;;27.79;26.81;100090.44;5075728;28;1930;-36
2022/04/25 04:37:13;;;;;;;;;;;;;;;27.70;26.66;100092.47;5074940;28;1211;-35
2022/04/25 04:39:39;;;;;;;;;;;;;;;27.63;27.16;100092.41;5074261;28;1295;-37
2022/04/25 04:42:04;;;;;;;;;;;;;;;27.66;27.20;100088.50;5077000;28;928;-34
2022/04/25 04:44:29;;;;;;;;;;;;;;;27.77;27.00;100087.94;5076800;28;889;-34
2022/04/25 04:46:55;;;;;;;;;;;;;;;27.74;26.93;100094.56;5073655;28;940;-36
2022/04/25 04:49:20;;;;;;;;;;;;;;;27.73;27.26;100101.00;5074257;28;1432;-36
2022/04/25 04:51:45;;;;;;;;;;;;;;;27.72;27.09;100093.13;5076394;28;1567;-34
2022/04/25 04:54:11;;;;;;;;;;;;;;;27.63;27.31;100097.81;5077247;28;1969;-35
2022/04/25 04:56:36;;;;;;;;;;;;;;;27.68;26.83;100091.81;5077158;28;734;-31
2022/04/25 04:59:02;;;;;;;;;;;;;;;27.69;27.32;100088.13;5075807;28;1165;-34
2022/04/25 05:01:27;;;;;;;;;;;;;;;27.54;27.55;100089.09;5082222;28;1127;-35
2022/04/25 05:03:55;;;;;;;;;;;;;;;27.42;27.65;100085.28;5081910;28;1010;-36
2022/04/25 05:06:20;;;;;;;;;;;;;;;27.53;27.35;100090.09;5082476;28;864;-34
2022/04/25 05:08:45;;;;;;;;;;;;;;;27.46;27.04;100089.25;5077248;28;727;-32
2022/04/25 05:11:11;;;;;;;;;;;;;;;27.43;27.07;100095.88;5076834;28;742;-31
2022/04/25 05:13:36;;;;;;;;;;;;;;;27.49;26.85;100099.66;5077350;28;739;-32
2022/04/25 05:16:02;;;;;;;;;;;;;;;27.60;26.93;100106.34;5078408;28;1975;-34
2022/04/25 05:18:28;;;;;;;;;;;;;;;27.67;26.38;100111.78;5082426;28;890;-33
2022/04/25 05:20:54;;;;;;;;;;;;;;;27.63;26.53;100105.94;5077125;28;810;-38
2022/04/25 05:23:19;;;;;;;;;;;;;;;27.65;26.64;100111.13;5076712;28;1527;-38
2022/04/25 05:25:44;;;;;;;;;;;;;;;27.59;27.07;100100.09;5087223;28;1015;-36
2022/04/25 05:28:10;;;;;;;;;;;;;;;27.66;26.71;100099.31;5096042;28;1077;-35
2022/04/25 05:30:35;;;;;;;;;;;;;;;27.67;26.80;100092.84;5091545;28;1265;-35
2022/04/25 05:33:03;;;;;;;;;;;;;;;27.64;26.76;100096.81;5078387;28;865;-32
2022/04/25 05:35:29;;;;;;;;;;;;;;;27.67;26.86;100095.56;5076461;28;2003;-33
2022/04/25 05:37:55;;;;;;;;;;;;;;;27.76;26.93;100105.16;5076780;28;760;-33
2022/04/25 05:40:20;;;;;;;;;;;;;;;27.85;26.81;100097.72;5076282;28;801;-37
2022/04/25 05:42:46;;;;;;;;;;;;;;;27.89;26.67;100095.44;5079463;28;845;-34
2022/04/25 05:45:12;;;;;;;;;;;;;;;27.85;27.17;100097.72;5076492;28;1523;-36
2022/04/25 05:47:37;;;;;;;;;;;;;;;27.91;26.80;100099.59;5067386;28;892;-35
2022/04/25 05:52:47;;;;;;;;;;;;;;;27.87;26.87;100098.34;5095715;28;702;-32
2022/04/25 05:55:12;;;;;;;;;;;;;;;27.94;26.67;100101.91;5095305;28;1968;-35
2022/04/25 05:57:37;;;;;;;;;;;;;;;28.03;26.35;100091.72;5079269;28;876;-33
2022/04/25 06:00:07;;;;;;;;;;;;;;;28.06;26.76;100098.59;5075959;28;1104;-34
2022/04/25 06:02:32;;;;;;;;;;;;;;;28.07;26.40;100089.44;5070197;28;879;-31
2022/04/25 06:04:57;;;;;;;;;;;;;;;28.05;26.44;100102.34;5076282;28;796;-37
2022/04/25 06:07:23;;;;;;;;;;;;;;;28.13;26.47;100102.13;5075837;28;885;-34
2022/04/25 06:09:48;;;;;;;;;;;;;;;28.71;26.01;100103.44;5075595;28;832;-30
2022/04/25 06:12:14;;;;;;;;;;;;;;;28.91;26.29;100099.03;5075680;28;1039;-33
2022/04/25 06:14:40;;;;;;;;;;;;;;;28.53;26.33;100103.25;5075961;28;1913;-35
2022/04/25 06:17:06;;;;;;;;;;;;;;;28.39;26.51;100102.41;5075150;28;833;-32
2022/04/25 06:19:32;;;;;;;;;;;;;;;28.41;26.64;100095.75;5075949;28;842;-36
2022/04/25 06:21:57;;;;;;;;;;;;;;;28.47;26.51;100105.75;5068594;28;936;-34
2022/04/25 06:24:23;;;;;;;;;;;;;;;28.48;26.37;100103.84;5075295;28;1053;-32
2022/04/25 06:26:49;;;;;;;;;;;;;;;28.51;26.73;100098.03;5075368;28;1306;-32
2022/04/25 06:29:14;;;;;;;;;;;;;;;28.53;26.71;100090.53;5075785;28;963;-34
2022/04/25 06:31:40;;;;;;;;;;;;;;;28.53;26.39;100095.94;5073909;28;1005;-34
2022/04/25 06:34:05;;;;;;;;;;;;;;;28.65;26.18;100089.91;5074021;28;1950;-31
2022/04/25 06:36:32;;;;;;;;;;;;;;;28.63;26.32;100103.66;5075726;28;793;-31
2022/04/25 06:38:57;;;;;;;;;;;;;;;28.61;26.01;100094.94;5075239;28;850;-31
2022/04/25 06:41:22;;;;;;;;;;;;;;;28.64;25.98;100099.91;5075930;28;880;-33
2022/04/25 06:43:48;;;;;;;;;;;;;;;28.71;25.93;100097.22;5076134;28;786;-31
2022/04/25 06:46:13;;;;;;;;;;;;;;;28.72;26.27;100099.69;5074118;28;929;-31
2022/04/25 06:48:38;;;;;;;;;;;;;;;28.81;25.73;100100.28;5075543;28;1285;-34
2022/04/25 06:51:04;;;;;;;;;;;;;;;28.85;26.10;100098.00;5075507;28;881;-33
2022/04/25 06:53:29;;;;;;;;;;;;;;;28.90;26.19;100095.50;5075165;28;1096;-33
2022/04/25 06:55:54;;;;;;;;;;;;;;;28.89;26.16;100093.00;5075428;28;1898;-37
2022/04/25 06:58:20;;;;;;;;;;;;;;;28.81;26.62;100089.47;5075578;28;818;-31
2022/04/25 07:00:47;;;;;;;;;;;;;;;28.91;26.31;100090.94;5085770;28;1069;-37
2022/04/25 07:03:12;;;;;;;;;;;;;;;28.99;26.23;100104.28;5089695;28;796;-34
2022/04/25 07:05:38;;;;;;;;;;;;;;;28.89;26.26;100101.97;5079437;28;841;-34
2022/04/25 07:08:03;;;;;;;;;;;;;;;29.00;26.11;100107.78;5079545;28;889;-35
2022/04/25 07:10:29;;;;;;;;;;;;;;;28.85;26.21;100101.56;5079220;28;795;-35
2022/04/25 07:12:56;;;;;;;;;;;;;;;29.14;26.12;100101.31;5092531;28;1011;-36
2022/04/25 07:15:22;;;;;;;;;;;;;;;29.03;26.19;100102.78;5079437;28;1961;-35
2022/04/25 07:17:50;;;;;;;;;;;;;;;28.95;25.79;100095.69;5083600;28;910;-35
2022/04/25 07:20:16;;;;;;;;;;;;;;;29.03;26.06;100099.28;5079139;28;986;-37
2022/04/25 07:30:53;;;;;;;;;;;;;;;29.08;26.18;100092.16;5097200;28;1014;-34
2022/04/25 07:33:18;;;;;;;;;;;;;;;29.39;25.88;100094.34;5069485;28;927;-36
2022/04/25 07:35:43;;;;;;;;;;;;;;;29.15;26.14;100085.88;5078981;28;1894;-36
2022/04/25 07:38:10;;;;;;;;;;;;;;;29.17;26.08;100086.50;5079443;28;861;-33
2022/04/25 07:40:36;;;;;;;;;;;;;;;29.34;25.39;100078.75;5078772;28;786;-38
2022/04/25 07:43:02;;;;;;;;;;;;;;;29.19;25.88;100079.84;5078903;28;782;-36
2022/04/25 07:45:27;;;;;;;;;;;;;;;29.34;25.85;100073.31;5078449;28;1058;-34
2022/04/25 07:47:52;;;;;;;;;;;;;;;29.31;25.47;100071.88;5091864;28;1084;-36
2022/04/25 07:50:23;;;;;;;;;;;;;;;29.62;25.08;100063.22;5095709;28;1309;-38
2022/04/25 07:52:48;;;;;;;;;;;;;;;29.54;24.89;100066.97;5092405;28;1028;-33
2022/04/25 07:55:14;;;;;;;;;;;;;;;29.63;25.34;100063.00;5096176;28;1953;-37
2022/04/25 07:57:39;;;;;;;;;;;;;;;29.55;25.36;100053.22;5078762;28;738;-32
2022/04/25 08:00:04;;;;;;;;;;;;;;;29.59;25.71;100059.06;5077274;28;1285;-33
2022/04/25 08:02:30;;;;;;;;;;;;;;;29.37;25.81;100055.78;5077476;28;990;-36
2022/04/25 08:04:55;;;;;;;;;;;;;;;29.25;26.04;100064.59;5078286;28;836;-35
2022/04/25 08:07:20;;;;;;;;;;;;;;;29.73;25.75;100070.66;5077652;28;1183;-35
2022/04/25 08:09:46;;;;;;;;;;;;;;;29.74;25.40;100058.78;5078034;28;1292;-38
2022/04/25 08:20:23;;;;;;;;;;;;;;;28.78;25.45;100045.78;5077575;28;773;-36
2022/04/25 08:22:48;;;;;;;;;;;;;;;28.64;25.76;100036.84;5077433;28;778;-37
2022/04/25 08:25:15;;;;;;;;;;;;;;;28.64;25.74;100053.06;5077739;28;794;-34
2022/04/25 08:27:40;;;;;;;;;;;;;;;28.53;26.27;100055.38;5076958;28;789;-37
2022/04/25 08:30:06;;;;;;;;;;;;;;;28.50;26.48;100054.94;5077255;28;899;-36
2022/04/25 08:32:33;;;;;;;;;;;;;;;28.57;26.16;100056.63;5073430;28;853;-34
2022/04/25 08:35:01;;;;;;;;;;;;;;;28.62;26.10;100052.44;5077669;28;1894;-37
2022/04/25 08:37:27;;;;;;;;;;;;;;;28.44;26.42;100057.47;5076824;28;939;-33
2022/04/25 08:39:52;;;;;;;;;;;;;;;28.42;26.53;100051.44;5076859;28;917;-35
2022/04/25 08:42:18;;;;;;;;;;;;;;;28.41;26.34;100063.28;5077176;28;758;-36
2022/04/25 08:44:44;;;;;;;;;;;;;;;28.50;25.93;100058.50;5076715;28;915;-34
2022/04/25 08:47:09;;;;;;;;;;;;;;;28.55;25.95;100068.69;5059536;28;832;-36
2022/04/25 08:49:35;;;;;;;;;;;;;;;28.46;26.10;100060.78;5076687;28;845;-36
2022/04/25 08:52:00;;;;;;;;;;;;;;;28.55;25.97;100072.22;5058650;28;802;-32
2022/04/25 08:54:31;;;;;;;;;;;;;;;28.45;25.95;100078.06;5058914;28;1894;-33
2022/04/25 08:56:57;;;;;;;;;;;;;;;28.45;25.98;100077.22;5059629;28;767;-36
2022/04/25 08:59:23;;;;;;;;;;;;;;;28.42;26.01;100073.06;5076442;28;1033;-37
2022/04/25 09:01:48;;;;;;;;;;;;;;;28.45;25.71;100077.22;5057605;28;911;-35
2022/04/25 09:04:14;;;;;;;;;;;;;;;28.44;25.91;100076.41;5076665;28;1414;-34
2022/04/25 09:06:39;;;;;;;;;;;;;;;28.38;25.85;100087.22;5076146;28;822;-34
2022/04/25 09:09:04;;;;;;;;;;;;;;;28.47;25.80;100076.00;5058530;28;811;-36
2022/04/25 09:14:14;;;;;;;;;;;;;;;28.37;26.21;100070.16;5071368;28;1909;-32
2022/04/25 09:16:39;;;;;;;;;;;;;;;28.38;26.24;100073.72;5075998;28;892;-34
2022/04/25 09:19:04;;;;;;;;;;;;;;;28.40;26.33;100060.78;5076025;28;990;-38
2022/04/25 09:21:29;;;;;;;;;;;;;;;28.44;26.11;100067.47;5076139;28;837;-34
2022/04/25 09:23:55;;;;;;;;;;;;;;;28.40;26.07;100061.63;5076176;28;797;-31
2022/04/25 09:26:21;;;;;;;;;;;;;;;28.43;26.17;100057.66;5058477;28;763;-34
2022/04/25 09:28:47;;;;;;;;;;;;;;;28.34;26.13;100049.75;5076554;28;812;-35
2022/04/25 09:31:15;;;;;;;;;;;;;;;28.32;26.00;100037.47;5075750;28;1207;-34
2022/04/25 09:33:40;;;;;;;;;;;;;;;28.34;26.17;100033.53;5073605;28;1111;-37
2022/04/25 09:36:06;;;;;;;;;;;;;;;28.27;26.03;100037.25;5075475;28;1937;-37
2022/04/25 09:38:34;;;;;;;;;;;;;;;28.32;25.92;100027.47;5075288;28;1253;-33
2022/04/25 09:41:00;;;;;;;;;;;;;;;28.38;25.97;100030.44;5076262;28;853;-35
2022/04/25 09:43:31;;;;;;;;;;;;;;;28.31;25.81;100028.50;5076242;28;1047;-33
2022/04/25 09:46:00;;;;;;;;;;;;;;;28.33;25.90;100026.47;5075644;28;1487;-34
2022/04/25 09:48:25;;;;;;;;;;;;;;;28.33;26.01;100022.91;5072628;28;1015;-33
2022/04/25 09:51:03;;;;;;;;;;;;;;;28.24;25.77;100023.09;5076097;28;813;-35
2022/04/25 09:53:44;;;;;;;;;;;;;;;28.16;26.32;100019.78;5075917;28;1491;-34
2022/04/25 09:56:29;;;;;;;;;;;;;;;28.17;26.17;100018.75;5073976;28;1910;-32
2022/04/25 09:58:59;;;;;;;;;;;;;;;28.32;25.98;100018.53;5073332;28;826;-35
2022/04/25 10:01:25;;;;;;;;;;;;;;;28.34;26.15;100025.41;5075374;28;1262;-35
2022/04/25 10:03:50;;;;;;;;;;;;;;;28.29;25.81;100029.78;5075095;28;1286;-34
2022/04/25 10:06:16;;;;;;;;;;;;;;;28.34;25.83;100017.28;5075096;28;1250;-35
2022/04/25 10:08:41;;;;;;;;;;;;;;;28.23;26.17;100017.91;5057912;28;1372;-34
2022/04/25 10:11:07;;;;;;;;;;;;;;;28.38;26.16;100019.59;5056853;28;1247;-37
2022/04/25 10:13:33;;;;;;;;;;;;;;;28.36;26.06;100017.91;5075857;28;750;-37
2022/04/25 10:15:58;;;;;;;;;;;;;;;28.40;26.06;100018.34;5075789;28;1910;-31
2022/04/25 10:18:25;;;;;;;;;;;;;;;28.40;26.37;100020.22;5074724;28;1026;-35
2022/04/25 10:20:50;;;;;;;;;;;;;;;28.33;26.29;100021.06;5075546;28;890;-33
2022/04/25 10:23:16;;;;;;;;;;;;;;;28.40;26.16;100020.22;5075497;28;1009;-30
2022/04/25 10:25:51;;;;;;;;;;;;;;;28.29;26.36;100017.09;5075424;28;1180;-34
2022/04/25 10:28:18;;;;;;;;;;;;;;;28.42;26.50;100018.13;5075413;28;1136;-36
2022/04/25 10:30:45;;;;;;;;;;;;;;;28.20;26.48;100021.88;5057180;28;811;-32
2022/04/25 10:33:15;;;;;;;;;;;;;;;28.17;26.94;100013.34;5057667;28;911;-37
2022/04/25 10:35:40;;;;;;;;;;;;;;;28.44;26.49;100018.75;5075497;28;1906;-32
2022/04/25 10:38:47;;;;;;;;;;;;;;;28.36;26.63;100020.63;5059927;28;753;-34
2022/04/25 10:44:11;;;;;;;;;;;;;;;28.09;26.90;100019.78;5074408;28;599;-34
2022/04/25 10:46:55;;;;;;;;;;;;;;;28.16;26.86;100015.19;5079426;28;863;-34
2022/04/25 10:49:27;;;;;;;;;;;;;;;28.22;26.86;100013.53;5079533;28;1016;-34
2022/04/25 10:51:52;;;;;;;;;;;;;;;28.22;26.68;100008.13;5078958;28;817;-37
2022/04/25 10:54:23;;;;;;;;;;;;;;;28.17;26.90;100016.88;5061366;28;1898;-31
2022/04/25 10:57:06;;;;;;;;;;;;;;;28.21;26.67;100010.00;5079827;28;817;-37
2022/04/25 10:59:32;;;;;;;;;;;;;;;28.16;26.54;100009.78;5076919;28;1027;-34
2022/04/25 11:01:57;;;;;;;;;;;;;;;28.18;26.52;100009.56;5095375;28;837;-34
2022/04/25 11:04:23;;;;;;;;;;;;;;;28.27;26.26;100010.19;5079578;28;766;-37
2022/04/25 11:06:48;;;;;;;;;;;;;;;28.23;26.34;100007.91;5084088;28;1057;-36
2022/04/25 11:09:32;;;;;;;;;;;;;;;28.21;26.24;100003.78;5098750;28;1060;-37
2022/04/25 11:11:57;;;;;;;;;;;;;;;28.22;26.50;100008.13;5098846;28;973;-32
2022/04/25 11:14:23;;;;;;;;;;;;;;;28.29;26.32;99998.16;5073084;28;1914;-36
2022/04/25 11:17:07;;;;;;;;;;;;;;;28.29;26.26;100000.00;5081081;28;883;-32
2022/04/25 11:19:45;;;;;;;;;;;;;;;28.21;26.65;99995.66;5079565;28;926;-37
2022/04/25 11:22:27;;;;;;;;;;;;;;;28.29;26.73;99995.44;5078926;28;769;-35
2022/04/25 11:24:52;;;;;;;;;;;;;;;28.27;26.74;100004.78;5061508;28;929;-35
2022/04/25 11:27:20;;;;;;;;;;;;;;;28.26;26.89;100003.94;5084364;28;863;-35
2022/04/25 11:29:45;;;;;;;;;;;;;;;28.43;26.81;100004.41;5078696;28;865;-33
2022/04/25 11:32:24;;;;;;;;;;;;;;;28.44;26.55;100002.53;5079414;28;824;-33
2022/04/25 11:34:50;;;;;;;;;;;;;;;28.43;26.41;100001.69;5097965;28;1963;-35
2022/04/25 11:37:15;;;;;;;;;;;;;;;28.39;26.34;99997.75;5098424;28;782;-38
2022/04/25 11:39:52;;;;;;;;;;;;;;;28.66;26.16;99997.69;5092633;28;867;-37
2022/04/25 11:42:18;;;;;;;;;;;;;;;28.52;26.26;99999.59;5091787;28;821;-36
2022/04/25 11:44:44;;;;;;;;;;;;;;;28.54;26.08;99991.28;5098040;28;897;-33
2022/04/25 11:47:10;;;;;;;;;;;;;;;28.63;26.10;99981.88;5080157;28;875;-36
2022/04/25 11:49:38;;;;;;;;;;;;;;;28.64;25.89;99988.13;5060607;28;810;-33
2022/04/25 11:52:12;;;;;;;;;;;;;;;28.53;26.04;99978.81;5066246;28;923;-38
2022/04/25 11:54:39;;;;;;;;;;;;;;;28.56;25.73;99978.38;5078838;28;1893;-35
2022/04/25 11:57:05;;;;;;;;;;;;;;;28.57;26.11;99977.31;5078120;28;818;-34
2022/04/25 11:59:30;;;;;;;;;;;;;;;28.58;25.67;99973.56;5098085;28;1079;-36
2022/04/25 12:01:56;;;;;;;;;;;;;;;28.50;26.10;99976.50;5097236;28;893;-36
2022/04/25 12:04:28;;;;;;;;;;;;;;;28.60;25.96;99969.63;5080364;28;829;-33
2022/04/25 12:06:54;;;;;;;;;;;;;;;28.56;25.97;99975.66;5085059;28;830;-34
2022/04/25 12:17:45;;;;;;;;;;;;;;;28.45;26.23;99972.56;5081608;28;1044;-36
2022/04/25 12:20:11;;;;;;;;;;;;;;;28.61;26.23;99970.47;5097182;28;1194;-35
2022/04/25 12:22:37;;;;;;;;;;;;;;;28.74;25.93;99961.47;5097499;28;794;-35
2022/04/25 12:25:12;;;;;;;;;;;;;;;28.80;25.84;99976.00;5097707;28;766;-32
2022/04/25 12:27:37;;;;;;;;;;;;;;;28.75;26.21;99975.81;5081042;28;1089;-32
2022/04/25 12:30:03;;;;;;;;;;;;;;;28.53;26.27;99962.56;5096805;28;963;-38
2022/04/25 12:32:28;;;;;;;;;;;;;;;28.41;26.66;99962.38;5078767;28;906;-34
2022/04/25 12:34:54;;;;;;;;;;;;;;;28.47;26.57;99961.53;5077373;28;1957;-34
2022/04/25 12:37:19;;;;;;;;;;;;;;;28.45;26.44;99960.91;5060469;28;1108;-36
2022/04/25 12:40:01;;;;;;;;;;;;;;;28.44;26.59;99957.38;5097728;28;1099;-38
2022/04/25 12:42:45;;;;;;;;;;;;;;;28.69;26.55;99955.84;5091561;28;790;-34
2022/04/25 12:45:10;;;;;;;;;;;;;;;28.84;26.03;99945.56;5080309;28;806;-38
2022/04/25 12:47:36;;;;;;;;;;;;;;;28.56;26.23;99959.44;5083185;28;828;-34
2022/04/25 12:50:02;;;;;;;;;;;;;;;28.40;26.24;99961.53;5077113;28;745;-33
2022/04/25 12:52:28;;;;;;;;;;;;;;;28.43;26.45;99968.38;5077520;28;885;-36
2022/04/25 12:54:54;;;;;;;;;;;;;;;28.73;26.04;99967.91;5077782;28;1906;-34
2022/04/25 12:57:26;;;;;;;;;;;;;;;28.66;25.89;99975.22;5087969;28;1120;-33
2022/04/25 12:59:52;;;;;;;;;;;;;;;28.70;26.23;99977.28;5076491;28;1005;-35
2022/04/25 13:02:17;;;;;;;;;;;;;;;28.84;26.01;99969.13;5072038;28;833;-31
2022/04/25 13:05:15;;;;;;;;;;;;;;;28.87;25.99;99959.72;5077061;28;934;-38
2022/04/25 13:07:44;;;;;;;;;;;;;;;28.79;25.65;99958.09;5021769;28;1454;-34
2022/04/25 13:10:10;;;;;;;;;;;;;;;28.73;25.74;99954.38;5076066;28;931;-36
2022/04/25 13:12:36;;;;;;;;;;;;;;;28.50;26.20;99958.41;5076650;28;802;-33
2022/04/25 13:15:02;;;;;;;;;;;;;;;28.50;26.54;99958.41;5076828;28;1961;-36
2022/04/25 13:17:27;;;;;;;;;;;;;;;28.55;26.24;99965.88;5074337;28;954;-37
2022/04/25 13:19:53;;;;;;;;;;;;;;;28.69;26.34;99970.22;5076116;28;1120;-35
2022/04/25 13:22:18;;;;;;;;;;;;;;;28.72;26.02;99967.09;5076496;28;775;-34
2022/04/25 13:24:45;;;;;;;;;;;;;;;28.87;26.24;99965.16;5076227;28;723;-33
2022/04/25 13:27:10;;;;;;;;;;;;;;;28.79;25.97;99971.63;5076129;28;933;-36
2022/04/25 13:29:35;;;;;;;;;;;;;;;28.57;26.15;99971.91;5076605;28;832;-33
2022/04/25 13:32:01;;;;;;;;;;;;;;;28.62;26.11;99984.78;5075345;28;1183;-33
2022/04/25 13:34:27;;;;;;;;;;;;;;;28.66;26.08;99994.97;5075796;28;1959;-33
2022/04/25 13:36:52;;;;;;;;;;;;;;;28.84;25.63;100001.59;5076219;28;814;-36